Weather History for KSYF - January, 2013

Change the Weather History Date:

Friday, January 18, 2013

  Actual Average Record
Temperature  
Mean Temperature 42 °F -  
Max Temperature 61 °F 42 °F 61 °F (2013)
Min Temperature 23 °F 15 °F 23 °F (2013)
Degree Days  
Heating Degree Days 23    
Moisture  
Dew Point 16 °F    
Average Humidity 49    
Maximum Humidity 84    
Minimum Humidity 10    
Precipitation  
Precipitation 0.00 in - - ()
Sea Level Pressure  
Sea Level Pressure 30.08 in    
Wind  
Wind Speed 10 mph (WSW)    
Max Wind Speed 24 mph    
Max Gust Speed 30 mph    
Visibility 10 miles    
Events      
Averages and records for this station are not official NWS values.
T = Trace of Precipitation, MM = Missing Value Source: NWS Daily Summary

Daily Weather History Graph

Daily Weather History Graph

Search for Another Location

Airport or City:

Trip Planner

Search our weather history database for the weather conditions in past years. The results will help you decide how hot, cold, wet, or windy it might be!

Date:

Astronomy

Jan. 18, 2013 Rise Set
Actual Time 8:05 AM CST 5:50 PM CST
Civil Twilight 7:35 AM CST 6:20 PM CST
Nautical Twilight 7:02 AM CST 6:53 PM CST
Astronomical Twilight 6:30 AM CST 7:25 PM CST
Moon 11:45 AM CST (1/18) 12:42 AM CST (1/18)
Length of Visible Light 10h 44m
Length of Day
9h 45m
Waxing Crescent, 47% of the Moon is Illuminated
Jan 18
Waxing Crescent
Jan 18
First Quarter
Jan 26
Full
Feb 3
Last Quarter
Feb 10
New

Hourly Weather History & Observations

Time (CST) Temp. Windchill Dew Point Humidity Pressure Visibility Wind Dir Wind Speed Gust Speed Precip Events Conditions
12:15 AM 28.0 °F 21.7 °F 21.0 °F 75% 30.22 in 10.0 mi SW 5.8 mph - N/A   Clear
12:35 AM 27.5 °F 18.6 °F 21.2 °F 77% 30.20 in 10.0 mi SW 9.2 mph - N/A   Clear
12:55 AM 28.9 °F 19.8 °F 21.4 °F 73% 30.19 in 10.0 mi SW 10.4 mph - N/A   Clear
1:15 AM 29.5 °F 21.1 °F 21.2 °F 71% 30.19 in 10.0 mi SW 9.2 mph - N/A   Clear
1:35 AM 28.0 °F 19.3 °F 21.0 °F 75% 30.18 in 10.0 mi SW 9.2 mph - N/A   Clear
1:55 AM 27.9 °F 18.4 °F 21.0 °F 75% 30.17 in 10.0 mi SW 10.4 mph - N/A   Clear
2:15 AM 27.5 °F 18.0 °F 21.2 °F 77% 30.17 in 10.0 mi SW 10.4 mph - N/A   Clear
2:35 AM 28.4 °F 18.0 °F 21.7 °F 76% 30.15 in 10.0 mi SW 12.7 mph - N/A   Clear
2:55 AM 28.2 °F 18.9 °F 21.6 °F 76% 30.15 in 10.0 mi SW 10.4 mph - N/A   Clear
3:15 AM 25.3 °F 16.0 °F 20.3 °F 81% 30.15 in 10.0 mi WSW 9.2 mph - N/A   Clear
3:35 AM 24.8 °F 14.6 °F 19.9 °F 82% 30.15 in 10.0 mi West 10.4 mph - N/A   Clear
3:55 AM 24.6 °F 17.7 °F 19.8 °F 82% 30.15 in 10.0 mi SW 5.8 mph - N/A   Clear
4:15 AM 23.7 °F 13.3 °F 19.4 °F 84% 30.13 in 10.0 mi SW 10.4 mph - N/A   Clear
4:35 AM 25.7 °F 15.7 °F 20.3 °F 80% 30.13 in 10.0 mi SW 10.4 mph - N/A   Clear
4:55 AM 25.2 °F 15.1 °F 20.1 °F 81% 30.12 in 10.0 mi SW 10.4 mph - N/A   Clear
5:15 AM 25.9 °F 14.8 °F 20.5 °F 80% 30.12 in 10.0 mi SW 12.7 mph - N/A   Clear
5:35 AM 26.6 °F 15.2 °F 21.2 °F 80% 30.10 in 10.0 mi WSW 13.8 mph - N/A   Clear
5:55 AM 26.6 °F 15.7 °F 21.2 °F 80% 30.10 in 10.0 mi WSW 12.7 mph - N/A   Clear
6:15 AM 27.5 °F 16.8 °F 21.7 °F 79% 30.10 in 10.0 mi SW 12.7 mph - N/A   Clear
6:35 AM 28.4 °F 18.0 °F 21.9 °F 77% 30.10 in 10.0 mi WSW 12.7 mph - N/A   Clear
6:55 AM 27.7 °F 16.6 °F 21.7 °F 78% 30.10 in 10.0 mi WSW 13.8 mph - N/A   Clear
7:15 AM 27.3 °F 17.7 °F 21.4 °F 78% 30.11 in 10.0 mi WSW 10.4 mph - N/A   Clear
7:35 AM 26.6 °F 15.7 °F 21.0 °F 79% 30.11 in 10.0 mi WSW 12.7 mph - N/A   Clear
7:55 AM 26.1 °F 15.6 °F 20.8 °F 81% 30.10 in 10.0 mi WSW 11.5 mph - N/A   Clear
8:15 AM 26.8 °F 15.9 °F 21.2 °F 79% 30.10 in 10.0 mi SW 12.7 mph - N/A   Clear
8:35 AM 28.0 °F 17.0 °F 21.4 °F 76% 30.10 in 10.0 mi SW 13.8 mph - N/A   Clear
8:55 AM 29.3 °F 19.6 °F 22.1 °F 75% 30.11 in 10.0 mi SW 11.5 mph - N/A   Clear
9:15 AM 31.6 °F 22.6 °F 22.8 °F 70% 30.12 in 10.0 mi SW 11.5 mph - N/A   Clear
9:35 AM 33.8 °F 25.3 °F 23.2 °F 65% 30.12 in 10.0 mi SW 11.5 mph - N/A   Clear
10:15 AM 37.8 °F 31.3 °F 23.7 °F 57% 30.13 in 10.0 mi WSW 9.2 mph - N/A   Clear
10:35 AM 41.5 °F 37.1 °F 24.3 °F 50% 30.13 in 10.0 mi WSW 6.9 mph - N/A   Clear
10:55 AM 45.7 °F 42.0 °F 25.0 °F 44% 30.12 in 10.0 mi West 6.9 mph - N/A   Clear
11:15 AM 51.1 °F - 19.4 °F 29% 30.12 in 10.0 mi West 9.2 mph - N/A   Clear
11:35 AM 56.1 °F - 12.2 °F 18% 30.10 in 10.0 mi WNW 13.8 mph 18.4 mph N/A   Clear
11:55 AM 57.6 °F - 9.5 °F 15% 30.09 in 10.0 mi WNW 13.8 mph 23.0 mph N/A   Clear
12:15 PM 58.6 °F - 8.4 °F 14% 30.08 in 10.0 mi WNW 16.1 mph 20.7 mph N/A   Clear
12:35 PM 58.8 °F - 6.8 °F 13% 30.06 in 10.0 mi WNW 24.2 mph 29.9 mph N/A   Clear
12:55 PM 59.0 °F - 7.9 °F 13% 30.06 in 10.0 mi WNW 18.4 mph 27.6 mph N/A   Clear
1:15 PM 60.1 °F - 7.5 °F 12% 30.04 in 10.0 mi NW 16.1 mph 26.5 mph N/A   Clear
1:35 PM 60.8 °F - 5.7 °F 11% 30.04 in 10.0 mi NW 17.3 mph 25.3 mph N/A   Clear
1:55 PM 61.0 °F - 5.7 °F 11% 30.03 in 10.0 mi NW 12.7 mph 20.7 mph N/A   Clear
2:15 PM 61.0 °F - 5.2 °F 11% 30.03 in 10.0 mi NW 16.1 mph 21.9 mph N/A   Clear
2:35 PM 61.0 °F - 5.5 °F 11% 30.03 in 10.0 mi NW 17.3 mph - N/A   Clear
2:55 PM 61.2 °F - 5.2 °F 11% 30.02 in 10.0 mi NW 15.0 mph - N/A   Clear
3:15 PM 61.3 °F - 4.8 °F 11% 30.02 in 10.0 mi NW 13.8 mph 20.7 mph N/A   Clear
3:35 PM 61.7 °F - 4.8 °F 10% 30.02 in 10.0 mi NW 11.5 mph - N/A   Clear
3:55 PM 61.9 °F - 4.8 °F 10% 30.01 in 10.0 mi WNW 11.5 mph - N/A   Clear
4:15 PM 61.7 °F - 6.8 °F 11% 30.01 in 10.0 mi NW 8.1 mph - N/A   Clear
4:35 PM 60.4 °F - 8.6 °F 13% 30.01 in 10.0 mi WNW 8.1 mph - N/A   Clear
4:55 PM 59.0 °F - 10.4 °F 15% 30.01 in 10.0 mi WNW 4.6 mph - N/A   Clear
5:15 PM 56.3 °F - 12.0 °F 17% 30.01 in 10.0 mi WNW 4.6 mph - N/A   Clear
5:35 PM 54.7 °F - 12.7 °F 19% 30.02 in 10.0 mi West 4.6 mph - N/A   Clear
5:55 PM 51.4 °F - 12.9 °F 22% 30.02 in 10.0 mi West 3.5 mph - N/A   Clear
6:15 PM 50.7 °F - 13.5 °F 23% 30.02 in 10.0 mi WSW 4.6 mph - N/A   Clear
6:35 PM 47.7 °F - 13.8 °F 26% 30.02 in 10.0 mi SW 5.8 mph - N/A   Clear
6:55 PM 47.3 °F - 13.6 °F 26% 30.02 in 10.0 mi SW 5.8 mph - N/A   Clear
7:15 PM 44.1 °F 40.1 °F 14.7 °F 31% 30.02 in 10.0 mi SW 6.9 mph - N/A   Clear
7:35 PM 41.0 °F 35.8 °F 16.7 °F 37% 30.02 in 10.0 mi SW 8.1 mph - N/A   Clear
7:55 PM 40.3 °F 34.9 °F 17.6 °F 40% 30.02 in 10.0 mi SW 8.1 mph - N/A   Clear
8:15 PM 40.1 °F 34.7 °F 17.6 °F 40% 30.02 in 10.0 mi SW 8.1 mph - N/A   Clear
8:35 PM 39.0 °F 34.0 °F 17.1 °F 41% 30.02 in 10.0 mi WSW 6.9 mph - N/A   Clear
8:55 PM 35.8 °F 30.1 °F 19.4 °F 51% 30.02 in 10.0 mi SW 6.9 mph - N/A   Clear
9:35 PM 34.3 °F 26.5 °F 19.4 °F 54% 30.01 in 10.0 mi SW 10.4 mph - N/A   Clear
9:55 PM 34.3 °F 26.5 °F 18.9 °F 53% 30.01 in 10.0 mi SW 10.4 mph - N/A   Clear
10:15 PM 34.9 °F 29.0 °F 17.4 °F 49% 30.01 in 10.0 mi WSW 6.9 mph - N/A   Clear
10:35 PM 33.3 °F 25.7 °F 18.0 °F 53% 30.01 in 10.0 mi WSW 9.2 mph - N/A   Clear
10:55 PM 32.0 °F 24.8 °F 18.1 °F 57% 30.01 in 10.0 mi SW 8.1 mph - N/A   Clear
11:15 PM 31.8 °F 24.6 °F 17.8 °F 56% 30.01 in 10.0 mi West 8.1 mph - N/A   Clear
11:35 PM 31.8 °F 24.6 °F 17.6 °F 56% 30.01 in 10.0 mi WSW 8.1 mph - N/A   Clear
11:55 PM 30.2 °F 22.6 °F 17.6 °F 60% 30.01 in 10.0 mi SW 8.1 mph - N/A   Clear